createdAt,value
2022-11-10T00:00:30.331Z,12.83
2022-11-10T00:03:15.743Z,12.99
2022-11-10T00:06:05.713Z,12.81
2022-11-10T00:08:50.940Z,12.63
2022-11-10T00:11:36.584Z,12.66
2022-11-10T00:14:40.284Z,12.85
2022-11-10T00:17:25.550Z,12.60
2022-11-10T00:20:11.776Z,12.56
2022-11-10T00:22:57.307Z,12.52
2022-11-10T00:25:42.714Z,12.49
2022-11-10T00:28:30.871Z,12.77
2022-11-10T00:31:16.314Z,12.95
2022-11-10T00:34:01.661Z,13.01
2022-11-10T00:36:46.976Z,12.89
2022-11-10T00:39:35.278Z,12.83
2022-11-10T00:42:20.803Z,12.83
2022-11-10T00:45:07.495Z,12.70
2022-11-10T00:47:59.459Z,12.65
2022-11-10T00:50:46.756Z,12.59
2022-11-10T00:53:32.233Z,12.61
2022-11-10T00:56:17.828Z,12.54
2022-11-10T00:59:03.204Z,12.45
2022-11-10T01:01:48.244Z,12.41
2022-11-10T01:04:33.652Z,12.39
2022-11-10T01:07:18.977Z,12.40
2022-11-10T01:10:05.221Z,12.24
2022-11-10T01:12:50.583Z,12.40
2022-11-10T01:15:40.012Z,12.29
2022-11-10T01:18:25.432Z,12.21
2022-11-10T01:21:11.196Z,12.37
2022-11-10T01:23:56.999Z,12.35
2022-11-10T01:26:42.291Z,12.32
2022-11-10T01:29:27.602Z,12.19
2022-11-10T01:32:12.671Z,12.30
2022-11-10T01:34:57.673Z,12.10
2022-11-10T01:37:43.329Z,12.18
2022-11-10T01:40:29.790Z,11.98
2022-11-10T01:43:15.826Z,12.25
2022-11-10T01:46:12.419Z,12.24
2022-11-10T01:49:02.492Z,12.16
2022-11-10T01:52:01.300Z,12.09
2022-11-10T01:54:48.740Z,11.87
2022-11-10T01:57:35.152Z,11.97
2022-11-10T02:00:20.925Z,11.77
2022-11-10T02:03:26.057Z,11.59
2022-11-10T02:06:12.983Z,11.74
2022-11-10T02:08:59.724Z,11.82
2022-11-10T02:11:47.493Z,12.14
2022-11-10T02:14:33.161Z,12.20
2022-11-10T02:17:18.683Z,12.19
2022-11-10T02:20:09.940Z,11.95
2022-11-10T02:22:55.370Z,11.96
2022-11-10T02:25:40.856Z,11.89
2022-11-10T02:28:27.303Z,11.98
2022-11-10T02:31:12.836Z,11.88
2022-11-10T02:33:58.170Z,11.95
2022-11-10T02:36:43.808Z,11.93
2022-11-10T02:39:28.909Z,11.83
2022-11-10T02:42:15.309Z,11.82
2022-11-10T02:45:00.344Z,11.76
2022-11-10T02:47:45.841Z,11.68
2022-11-10T02:50:30.801Z,11.72
2022-11-10T02:53:15.886Z,11.60
2022-11-10T02:56:00.932Z,11.65
2022-11-10T02:58:46.128Z,11.42
2022-11-10T03:01:31.661Z,11.27
2022-11-10T03:04:16.896Z,11.37
2022-11-10T03:07:02.175Z,11.33
2022-11-10T03:09:47.246Z,11.28
2022-11-10T03:12:32.856Z,11.16
2022-11-10T03:15:18.112Z,11.27
2022-11-10T03:18:04.829Z,11.22
2022-11-10T03:20:50.215Z,11.17
2022-11-10T03:23:36.220Z,11.17
2022-11-10T03:26:22.554Z,11.19
2022-11-10T03:29:08.129Z,11.40
2022-11-10T03:31:53.354Z,11.45
2022-11-10T03:34:38.745Z,11.44
2022-11-10T03:37:24.017Z,11.42
2022-11-10T03:40:09.618Z,11.49
2022-11-10T03:42:55.214Z,11.39
2022-11-10T03:45:42.422Z,11.20
2022-11-10T03:48:27.803Z,11.16
2022-11-10T03:51:13.102Z,11.13
2022-11-10T03:54:09.653Z,10.89
2022-11-10T03:56:59.082Z,10.80
2022-11-10T03:59:47.613Z,10.82
2022-11-10T04:02:59.997Z,10.90
2022-11-10T04:06:03.616Z,10.84
2022-11-10T04:09:00.795Z,10.85
2022-11-10T04:12:04.431Z,10.88
2022-11-10T04:15:08.354Z,10.96
2022-11-10T04:17:53.807Z,11.05
2022-11-10T04:20:39.249Z,10.97
2022-11-10T04:23:27.235Z,10.90
2022-11-10T04:26:29.723Z,11.08
2022-11-10T04:29:19.777Z,11.02
2022-11-10T04:32:05.276Z,10.96
2022-11-10T04:34:50.923Z,11.24
2022-11-10T04:37:36.628Z,11.29
2022-11-10T04:40:21.886Z,11.40
2022-11-10T04:43:07.299Z,11.16
2022-11-10T04:45:52.444Z,11.26
2022-11-10T04:48:37.839Z,11.13
2022-11-10T04:51:26.029Z,11.16
2022-11-10T04:54:11.792Z,11.03
2022-11-10T04:56:57.355Z,11.06
2022-11-10T04:59:42.607Z,11.11
2022-11-10T05:02:27.964Z,10.96
2022-11-10T05:05:13.416Z,11.01
2022-11-10T05:07:59.073Z,10.89
2022-11-10T05:10:44.447Z,10.82
2022-11-10T05:13:30.559Z,10.79
2022-11-10T05:16:15.940Z,10.79
2022-11-10T05:19:01.683Z,10.94
2022-11-10T05:21:46.757Z,10.90
2022-11-10T05:24:32.365Z,10.90
2022-11-10T05:27:17.717Z,10.63
2022-11-10T05:30:03.619Z,10.50
2022-11-10T05:32:48.736Z,10.44
2022-11-10T05:35:34.875Z,10.70
2022-11-10T05:38:20.028Z,10.44
2022-11-10T05:41:05.364Z,10.47
2022-11-10T05:43:50.840Z,10.77
2022-11-10T05:46:36.137Z,10.74
2022-11-10T05:49:21.544Z,10.70
2022-11-10T05:52:08.186Z,10.49
2022-11-10T05:54:55.360Z,10.51
2022-11-10T05:57:51.091Z,10.50
2022-11-10T06:00:37.515Z,10.46
2022-11-10T06:03:23.366Z,10.70
2022-11-10T06:06:09.324Z,11.00
2022-11-10T06:08:56.381Z,11.00
2022-11-10T06:11:41.971Z,10.94
2022-11-10T06:14:27.428Z,10.85
2022-11-10T06:17:12.560Z,10.55
2022-11-10T06:19:57.655Z,10.37
2022-11-10T06:22:43.567Z,10.34
2022-11-10T06:25:34.520Z,10.28
2022-11-10T06:28:19.920Z,10.52
2022-11-10T06:31:05.425Z,10.73
2022-11-10T06:33:50.851Z,10.71
2022-11-10T06:36:36.126Z,10.77
2022-11-10T06:39:21.552Z,10.58
2022-11-10T06:42:07.052Z,10.55
2022-11-10T06:44:52.056Z,10.52
2022-11-10T06:47:37.600Z,10.45
2022-11-10T06:50:23.130Z,10.42
2022-11-10T06:53:09.626Z,10.43
2022-11-10T06:55:54.860Z,10.45
2022-11-10T06:58:40.132Z,10.25
2022-11-10T07:01:26.660Z,10.47
2022-11-10T07:04:21.049Z,10.42
2022-11-10T07:07:06.643Z,10.35
2022-11-10T07:09:52.150Z,10.31
2022-11-10T07:12:37.311Z,10.38
2022-11-10T07:15:22.485Z,10.31
2022-11-10T07:18:09.063Z,10.31
2022-11-10T07:20:54.473Z,10.42
2022-11-10T07:23:39.721Z,10.49
2022-11-10T07:26:25.663Z,10.51
2022-11-10T07:29:10.849Z,10.52
2022-11-10T07:31:56.481Z,10.51
2022-11-10T07:34:42.239Z,10.65
2022-11-10T07:37:29.709Z,10.58
2022-11-10T07:40:15.372Z,10.95
2022-11-10T07:43:01.545Z,10.83
2022-11-10T07:45:46.609Z,11.23
2022-11-10T07:48:32.004Z,11.05
2022-11-10T07:51:17.313Z,10.94
2022-11-10T07:54:02.913Z,11.42
2022-11-10T07:56:48.471Z,11.56
2022-11-10T07:59:33.540Z,11.75
2022-11-10T08:02:18.747Z,11.72
2022-11-10T08:05:04.843Z,11.67
2022-11-10T08:07:49.963Z,11.58
2022-11-10T08:10:35.987Z,11.47
2022-11-10T08:13:21.779Z,11.75
2022-11-10T08:16:07.524Z,11.78
2022-11-10T08:18:52.885Z,11.83
2022-11-10T08:21:38.527Z,11.85
2022-11-10T08:24:24.085Z,11.97
2022-11-10T08:27:09.546Z,12.91
2022-11-10T08:29:54.778Z,13.55
2022-11-10T08:32:40.105Z,13.93
2022-11-10T08:35:27.185Z,13.85
2022-11-10T08:38:16.692Z,13.55
2022-11-10T08:41:02.060Z,13.28
2022-11-10T08:43:47.781Z,12.83
2022-11-10T08:46:33.133Z,12.52
2022-11-10T08:49:18.605Z,12.28
2022-11-10T08:52:04.261Z,12.21
2022-11-10T08:54:49.646Z,12.33
2022-11-10T08:57:35.045Z,12.46
2022-11-10T09:00:20.282Z,12.37
2022-11-10T09:03:07.325Z,12.27
2022-11-10T09:05:57.970Z,12.28
2022-11-10T09:08:43.989Z,12.19
2022-11-10T09:11:30.773Z,12.57
2022-11-10T09:14:15.861Z,12.63
2022-11-10T09:17:01.144Z,12.48
2022-11-10T09:19:46.345Z,12.63
2022-11-10T09:22:31.938Z,12.73
2022-11-10T09:25:17.152Z,12.58
2022-11-10T09:28:04.089Z,12.77
2022-11-10T09:30:51.683Z,12.75
2022-11-10T09:33:36.924Z,12.78
2022-11-10T09:36:22.606Z,12.99
2022-11-10T09:39:08.067Z,13.17
2022-11-10T09:41:53.541Z,13.26
2022-11-10T09:44:47.317Z,13.06
2022-11-10T09:47:58.233Z,12.88
2022-11-10T09:50:50.519Z,13.02
2022-11-10T09:53:45.138Z,12.99
2022-11-10T09:56:33.318Z,13.12
2022-11-10T09:59:33.286Z,13.16
2022-11-10T10:02:38.148Z,13.24
2022-11-10T10:06:02.507Z,13.36
2022-11-10T10:09:15.816Z,13.27
2022-11-10T10:12:24.409Z,13.46
2022-11-10T10:16:04.024Z,14.18
2022-11-10T10:19:11.373Z,14.87
2022-11-10T10:22:25.308Z,15.04
2022-11-10T10:25:20.789Z,14.49
2022-11-10T10:28:21.014Z,14.45
2022-11-10T10:31:26.558Z,14.11
2022-11-10T10:34:15.900Z,13.96
2022-11-10T10:37:01.798Z,14.02
2022-11-10T10:39:50.184Z,14.20
2022-11-10T10:42:37.549Z,14.07
2022-11-10T10:45:25.494Z,13.88
2022-11-10T10:48:29.192Z,13.90
2022-11-10T10:51:31.321Z,13.79
2022-11-10T10:54:28.677Z,14.04
2022-11-10T10:57:29.168Z,14.14
2022-11-10T11:00:17.732Z,14.34
2022-11-10T11:03:07.726Z,14.26
2022-11-10T11:06:19.950Z,14.35
2022-11-10T11:09:14.975Z,14.36
2022-11-10T11:12:06.583Z,14.50
2022-11-10T11:14:53.836Z,14.55
2022-11-10T11:17:40.313Z,14.48
2022-11-10T11:20:36.337Z,14.40
2022-11-10T11:24:04.129Z,14.48
2022-11-10T11:27:10.190Z,14.35
2022-11-10T11:30:05.946Z,14.35
2022-11-10T11:32:50.970Z,14.40
2022-11-10T11:36:01.655Z,14.58
2022-11-10T11:38:55.911Z,14.63
2022-11-10T11:42:04.415Z,14.67
2022-11-10T11:44:58.704Z,14.62
2022-11-10T11:47:49.989Z,14.48
2022-11-10T11:50:51.032Z,14.41
2022-11-10T11:54:08.917Z,14.44
2022-11-10T11:57:03.840Z,14.61
2022-11-10T12:00:14.065Z,14.57
2022-11-10T12:03:16.689Z,14.51
2022-11-10T12:06:27.148Z,14.74
2022-11-10T12:09:27.655Z,14.67
2022-11-10T12:12:44.036Z,14.67
2022-11-10T12:15:53.283Z,14.47
2022-11-10T12:18:49.465Z,14.43
2022-11-10T12:22:06.572Z,14.52
2022-11-10T12:25:08.896Z,14.59
2022-11-10T12:28:03.262Z,14.57
2022-11-10T12:30:56.396Z,14.52
2022-11-10T12:33:49.889Z,14.64
2022-11-10T12:36:35.471Z,14.66
2022-11-10T12:39:25.080Z,14.74
2022-11-10T12:42:18.835Z,14.62
2022-11-10T12:45:17.533Z,14.54
2022-11-10T12:48:04.129Z,14.51
2022-11-10T12:50:51.887Z,14.82
2022-11-10T12:53:39.945Z,14.90
2022-11-10T12:56:35.653Z,14.83
2022-11-10T12:59:20.816Z,14.76
2022-11-10T13:02:23.905Z,14.63
2022-11-10T13:05:15.196Z,14.67
2022-11-10T13:08:27.402Z,14.83
2022-11-10T13:11:12.702Z,14.82
2022-11-10T13:14:00.492Z,14.68
2022-11-10T13:16:56.553Z,14.95
2022-11-10T13:19:50.449Z,14.82
2022-11-10T13:22:40.878Z,14.79
2022-11-10T13:25:38.437Z,14.90
2022-11-10T13:28:49.076Z,14.78
2022-11-10T13:31:34.171Z,14.90
2022-11-10T13:34:19.795Z,15.11
2022-11-10T13:37:29.934Z,15.19
2022-11-10T13:40:23.978Z,15.19
2022-11-10T13:43:19.661Z,15.08
2022-11-10T13:46:05.594Z,15.10
2022-11-10T13:49:19.090Z,15.05
2022-11-10T13:52:13.790Z,15.10
2022-11-10T13:54:59.082Z,15.30
2022-11-10T13:58:00.107Z,15.26
2022-11-10T14:01:12.344Z,15.33
2022-11-10T14:04:02.187Z,15.25
2022-11-10T14:06:54.947Z,15.36
2022-11-10T14:09:47.976Z,15.46
2022-11-10T14:12:46.420Z,15.69
2022-11-10T14:15:40.550Z,15.67
2022-11-10T14:18:37.073Z,15.71
2022-11-10T14:21:46.963Z,15.72
2022-11-10T14:24:39.368Z,15.58
2022-11-10T14:27:28.264Z,15.69
2022-11-10T14:30:27.905Z,15.91
2022-11-10T14:33:14.771Z,15.80
2022-11-10T14:36:04.985Z,15.86
2022-11-10T14:38:52.624Z,15.99
2022-11-10T14:41:46.727Z,15.86
2022-11-10T14:44:36.554Z,15.44
2022-11-10T14:47:32.985Z,15.25
2022-11-10T14:50:24.856Z,15.17
2022-11-10T14:53:48.735Z,15.12
2022-11-10T14:56:36.683Z,15.07
2022-11-10T14:59:24.129Z,15.06
2022-11-10T15:02:15.631Z,15.02
2022-11-10T15:05:02.610Z,15.09
2022-11-10T15:07:52.673Z,15.03
2022-11-10T15:10:39.676Z,15.11
2022-11-10T15:13:28.222Z,15.03
2022-11-10T15:16:34.575Z,14.92
2022-11-10T15:19:22.112Z,14.87
2022-11-10T15:22:19.900Z,14.84
2022-11-10T15:25:15.118Z,14.85
2022-11-10T15:28:04.122Z,14.75
2022-11-10T15:30:59.235Z,14.44
2022-11-10T15:33:47.687Z,14.70
2022-11-10T15:36:40.762Z,14.67
2022-11-10T15:39:27.235Z,14.54
2022-11-10T15:42:21.253Z,14.43
2022-11-10T15:45:07.176Z,14.51
2022-11-10T15:47:52.595Z,14.35
2022-11-10T15:50:38.218Z,14.38
2022-11-10T15:53:35.754Z,14.47
2022-11-10T15:56:24.087Z,14.45
2022-11-10T15:59:10.882Z,14.30
2022-11-10T16:01:56.581Z,14.31
2022-11-10T16:04:42.846Z,14.25
2022-11-10T16:07:30.359Z,14.17
2022-11-10T16:10:15.540Z,14.19
2022-11-10T16:13:00.734Z,13.96
2022-11-10T16:15:46.644Z,13.87
2022-11-10T16:18:32.124Z,14.07
2022-11-10T16:21:22.772Z,14.12
2022-11-10T16:24:08.547Z,13.84
2022-11-10T16:26:53.971Z,13.99
2022-11-10T16:29:40.138Z,13.91
2022-11-10T16:32:25.310Z,13.91
2022-11-10T16:35:15.069Z,13.92
2022-11-10T16:38:00.276Z,14.02
2022-11-10T16:40:54.922Z,13.78
2022-11-10T16:43:41.697Z,13.70
2022-11-10T16:46:29.849Z,13.70
2022-11-10T16:49:23.293Z,13.48
2022-11-10T16:52:16.842Z,13.38
2022-11-10T16:55:02.005Z,13.35
2022-11-10T16:57:48.854Z,13.44
2022-11-10T17:00:37.012Z,13.46
2022-11-10T17:03:33.541Z,13.62
2022-11-10T17:06:21.447Z,13.78
2022-11-10T17:09:21.392Z,14.01
2022-11-10T17:12:06.604Z,13.57
2022-11-10T17:14:52.468Z,13.71
2022-11-10T17:17:39.865Z,13.45
2022-11-10T17:20:32.058Z,13.31
2022-11-10T17:23:21.782Z,13.34
2022-11-10T17:26:12.338Z,13.51
2022-11-10T17:28:57.800Z,13.40
2022-11-10T17:31:44.218Z,13.17
2022-11-10T17:34:29.355Z,13.24
2022-11-10T17:37:14.602Z,13.19
2022-11-10T17:40:07.253Z,13.17
2022-11-10T17:42:52.672Z,13.08
2022-11-10T17:45:38.148Z,13.08
2022-11-10T17:48:23.497Z,13.03
2022-11-10T17:51:17.977Z,13.06
2022-11-10T17:54:06.722Z,13.04
2022-11-10T17:56:51.752Z,13.26
2022-11-10T17:59:36.761Z,13.20
2022-11-10T18:02:22.346Z,13.24
2022-11-10T18:05:10.951Z,13.17
2022-11-10T18:07:56.227Z,13.13
2022-11-10T18:10:52.327Z,13.29
2022-11-10T18:13:38.999Z,13.33
2022-11-10T18:16:24.400Z,13.14
2022-11-10T18:19:11.147Z,13.13
2022-11-10T18:21:56.404Z,13.04
2022-11-10T18:24:42.450Z,13.01
2022-11-10T18:27:28.513Z,13.00
2022-11-10T18:30:14.529Z,12.97
2022-11-10T18:33:04.814Z,13.00
2022-11-10T18:35:49.892Z,12.90
2022-11-10T18:38:35.884Z,12.93
2022-11-10T18:41:40.096Z,12.87
2022-11-10T18:44:25.261Z,12.81
2022-11-10T18:47:12.890Z,12.72
2022-11-10T18:49:58.078Z,12.57
2022-11-10T18:52:43.654Z,12.62
2022-11-10T18:55:29.145Z,12.66
2022-11-10T18:58:14.291Z,12.70
2022-11-10T19:01:07.671Z,12.84
2022-11-10T19:03:53.372Z,12.67
2022-11-10T19:06:39.574Z,12.56
2022-11-10T19:09:24.899Z,12.75
2022-11-10T19:12:11.430Z,12.64
2022-11-10T19:14:56.753Z,12.55
2022-11-10T19:17:41.777Z,12.45
2022-11-10T19:20:27.321Z,12.32
2022-11-10T19:23:12.621Z,12.22
2022-11-10T19:26:04.712Z,12.33
2022-11-10T19:28:50.343Z,12.31
2022-11-10T19:31:35.933Z,12.46
2022-11-10T19:34:21.336Z,12.39
2022-11-10T19:37:07.193Z,12.40
2022-11-10T19:39:52.155Z,12.25
2022-11-10T19:42:37.596Z,12.12
2022-11-10T19:45:23.311Z,12.06
2022-11-10T19:48:08.733Z,12.08
2022-11-10T19:50:55.436Z,12.01
2022-11-10T19:53:42.092Z,12.10
2022-11-10T19:56:31.648Z,11.89
2022-11-10T19:59:19.318Z,11.85
2022-11-10T20:02:05.281Z,11.95
2022-11-10T20:05:09.619Z,11.96
2022-11-10T20:08:13.359Z,12.09
2022-11-10T20:11:01.059Z,12.00
2022-11-10T20:13:51.958Z,11.80
2022-11-10T20:16:39.591Z,11.80
2022-11-10T20:19:24.611Z,11.77
2022-11-10T20:22:12.548Z,11.71
2022-11-10T20:24:58.192Z,11.88
2022-11-10T20:27:43.859Z,11.75
2022-11-10T20:30:29.908Z,11.73
2022-11-10T20:33:14.863Z,11.67
2022-11-10T20:36:15.956Z,11.63
2022-11-10T20:39:04.642Z,11.50
2022-11-10T20:41:52.718Z,11.47
2022-11-10T20:44:38.078Z,11.37
2022-11-10T20:47:23.630Z,11.46
2022-11-10T20:50:14.811Z,11.72
2022-11-10T20:53:00.998Z,11.78
2022-11-10T20:55:54.155Z,11.80
2022-11-10T20:58:39.922Z,11.73
2022-11-10T21:01:25.534Z,11.66
2022-11-10T21:04:11.080Z,11.58
2022-11-10T21:06:56.563Z,11.56
2022-11-10T21:09:41.576Z,11.58
2022-11-10T21:12:45.303Z,11.55
2022-11-10T21:15:30.818Z,11.47
2022-11-10T21:18:16.576Z,11.35
2022-11-10T21:21:05.315Z,11.28
2022-11-10T21:23:56.981Z,11.36
2022-11-10T21:26:42.720Z,11.30
2022-11-10T21:29:27.718Z,11.29
2022-11-10T21:32:13.056Z,11.27
2022-11-10T21:34:58.199Z,11.23
2022-11-10T21:37:43.923Z,11.18
2022-11-10T21:40:29.013Z,11.25
2022-11-10T21:43:14.479Z,11.22
2022-11-10T21:46:03.868Z,11.08
2022-11-10T21:48:53.520Z,11.28
2022-11-10T21:51:39.401Z,11.15
2022-11-10T21:54:24.509Z,11.21
2022-11-10T21:57:10.199Z,11.21
2022-11-10T21:59:55.289Z,11.19
2022-11-10T22:02:40.433Z,11.08
2022-11-10T22:05:25.714Z,11.16
2022-11-10T22:08:12.216Z,11.08
2022-11-10T22:11:16.006Z,10.89
2022-11-10T22:14:19.991Z,11.01
2022-11-10T22:17:33.894Z,10.96
2022-11-10T22:20:19.433Z,10.96
2022-11-10T22:23:06.002Z,11.01
2022-11-10T22:25:51.017Z,11.11
2022-11-10T22:28:36.259Z,11.07
2022-11-10T22:31:21.611Z,11.08
2022-11-10T22:34:07.067Z,11.10
2022-11-10T22:36:54.572Z,11.03
2022-11-10T22:39:58.495Z,10.96
2022-11-10T22:43:03.249Z,10.87
2022-11-10T22:45:49.152Z,10.83
2022-11-10T22:48:34.398Z,10.87
2022-11-10T22:51:20.001Z,11.03
2022-11-10T22:54:09.335Z,10.98
2022-11-10T22:56:55.183Z,10.73
2022-11-10T22:59:40.772Z,10.83
2022-11-10T23:02:25.836Z,10.84
2022-11-10T23:05:10.978Z,10.91
2022-11-10T23:07:56.337Z,10.82
2022-11-10T23:10:41.669Z,10.91
2022-11-10T23:13:27.837Z,10.96
2022-11-10T23:16:15.458Z,10.82
2022-11-10T23:19:01.424Z,10.73
2022-11-10T23:21:46.919Z,10.84
2022-11-10T23:24:32.213Z,10.82
2022-11-10T23:27:19.140Z,10.77
2022-11-10T23:30:04.667Z,10.80
2022-11-10T23:32:49.805Z,10.81
2022-11-10T23:35:35.667Z,10.79
2022-11-10T23:38:21.143Z,10.91
2022-11-10T23:41:09.695Z,10.76
2022-11-10T23:43:55.282Z,10.77
2022-11-10T23:46:40.533Z,10.82
2022-11-10T23:49:27.323Z,10.75
2022-11-10T23:52:12.581Z,10.77
2022-11-10T23:54:57.796Z,10.76
2022-11-10T23:57:46.320Z,10.65
